Urb Jose Mercado, Puerto Rico
Current Conditions -  °F | °C
As of 11:56 PM on Wednesday 26 Nov 2014 (Local Time) from TJSJ Reporting Station
Scattered Clouds Scattered Clouds  
Wind Chill: 77°   Ceiling: Unl
Heat Index: 78°   Visibility: 10mi
Dew Point: 75°   Wind: 0mph
Humidity: 94%   Direction: NA
Pressure: 30.01"   Gusts: NA
Location:  18.2361°N, 66.0369°W
Report Text: TJSJ 270356Z 00000KT 10SM SCT028 SCT048 25/24 A3001 RMK AO2 SLP163 T02500239 403000233
Loading
Personal Weather Stations






























Interactive Weather Map New forecast layout! Learn more

10-Day Weather Forecast

Advertisements
Track Severe Weather on mobile